Flight Number: EUR3019 Duration: 7:00
Departure: Baltimore Washington Intl (KBWI) at 07:00 Distance: 3173 Nm
Arrival: Gatwick Airport (EGKK) at 14:00 Equipment: B777

Weather Information
BALTIMORE-WASHINGTON INTERNATIONAL , MD, United States (KBWI) 39-10N 076-41W 59M Aug 19, 2018 - 04:54 AM EDT / 2018.08.19 0854 UTC
Wind: from the N (350 degrees) at 6 MPH (5 KT):0
Visibility: 10 mile(s):0
Sky conditions: overcast Temperature: 72.0 F (22.2 C) Dew Point: 68.0 F (20.0 C) Relative Humidity: 87% Pressure (altimeter): 29.85 in. Hg (1010 hPa) Pressure tendency: 0.01 inches (0.4 hPa) higher than three hours ago
ob: KBWI 190854Z 35005KT 10SM BKN020 OVC038 22/20 A2985 RMK AO2 SLP107 T02220200 53004 cycle: 9
Sunrise: 10:27 Sunset: 23:53 (UTC)

London / Gatwick Airport, United Kingdom (EGKK) 51-09N 000-11W 0M Aug 19, 2018 - 04:50 AM EDT / 2018.08.19 0850 UTC
Wind: from the SW (220 degrees) at 13 MPH (11 KT) (direction variable):0
Visibility: greater than 7 mile(s):0
Sky conditions: mostly cloudy Temperature: 64 F (18 C) Dew Point: 59 F (15 C) Relative Humidity: 82% Pressure (altimeter): 30.09 in. Hg (1019 hPa)
ob: EGKK 190850Z 22011KT 180V250 9999 BKN013 18/15 Q1019 cycle: 9
Sunrise: 04:58 Sunset: 19:10 (UTC)

TAF:2018/08/19 06:20 TAF EGKK 190458Z 1906/2012 22008KT 9999 BKN020 TEMPO 1906/1915 BKN010 PROB30 TEMPO 1906/1914 7000 -DZ BKN007 PROB30 TEMPO 1911/1915 22015G25KT PROB30 TEMPO 2002/2008 5000 HZ BKN006

Previous Pireps for this route
Date Aircraft Flight time Fuel used Landing rate On time
2013-02-04A34007.09176480-953No
2013-12-03B7479.10171000Yes
2016-06-07B77706.36127079-304No
(pireps marked green are flown by you)

Route map